createdAt,value
2018-02-27T00:00:28.471Z,102051.60
2018-02-27T00:02:54.266Z,102052.66
2018-02-27T00:05:20.059Z,102052.77
2018-02-27T00:07:45.895Z,102046.95
2018-02-27T00:10:11.695Z,102044.58
2018-02-27T00:12:37.533Z,102047.37
2018-02-27T00:15:03.368Z,102047.45
2018-02-27T00:17:29.192Z,102054.85
2018-02-27T00:19:55.027Z,102052.97
2018-02-27T00:22:20.886Z,102051.55
2018-02-27T00:24:46.688Z,102046.53
2018-02-27T00:27:12.482Z,102051.36
2018-02-27T00:29:38.324Z,102049.95
2018-02-27T00:32:04.131Z,102052.39
2018-02-27T00:34:29.966Z,102047.42
2018-02-27T00:36:55.791Z,102054.62
2018-02-27T00:39:21.576Z,102048.08
2018-02-27T00:41:47.391Z,102044.16
2018-02-27T00:44:13.203Z,102043.56
2018-02-27T00:46:39.055Z,102041.95
2018-02-27T00:49:04.862Z,102035.90
2018-02-27T00:51:30.664Z,102033.70
2018-02-27T00:53:56.476Z,102037.20
2018-02-27T00:56:22.278Z,102032.06
2018-02-27T00:58:48.085Z,102035.05
2018-02-27T01:01:13.898Z,102028.53
2018-02-27T01:03:39.702Z,102024.83
2018-02-27T01:06:05.510Z,102030.27
2018-02-27T01:08:31.314Z,102023.48
2018-02-27T01:10:57.150Z,102026.63
2018-02-27T01:13:22.973Z,102018.56
2018-02-27T01:15:48.777Z,102021.15
2018-02-27T01:18:14.582Z,102020.58
2018-02-27T01:20:40.386Z,102022.54
2018-02-27T01:23:06.180Z,102012.48
2018-02-27T01:25:31.986Z,102014.06
2018-02-27T01:27:57.793Z,102011.25
2018-02-27T01:30:23.637Z,102017.09
2018-02-27T01:32:49.430Z,102007.92
2018-02-27T01:35:15.310Z,102011.38
2018-02-27T01:37:41.119Z,102009.59
2018-02-27T01:40:06.926Z,102010.02
2018-02-27T01:42:32.726Z,102005.61
2018-02-27T01:44:58.535Z,102012.36
2018-02-27T01:47:24.329Z,102006.11
2018-02-27T01:49:50.122Z,102006.13
2018-02-27T01:52:15.928Z,102005.56
2018-02-27T01:54:41.739Z,102000.33
2018-02-27T01:57:07.529Z,101991.03
2018-02-27T01:59:33.363Z,101987.44
2018-02-27T02:01:59.194Z,101982.67
2018-02-27T02:04:24.998Z,101983.60
2018-02-27T02:06:50.834Z,101980.61
2018-02-27T02:09:23.630Z,101971.02
2018-02-27T02:11:49.422Z,101975.39
2018-02-27T02:14:15.226Z,101970.46
2018-02-27T02:16:41.052Z,101967.03
2018-02-27T02:19:06.849Z,101965.34
2018-02-27T02:21:32.672Z,101965.80
2018-02-27T02:23:58.519Z,101959.98
2018-02-27T02:26:24.315Z,101962.54
2018-02-27T02:28:50.117Z,101960.72
2018-02-27T02:31:15.961Z,101958.48
2018-02-27T02:33:41.769Z,101956.29
2018-02-27T02:36:08.384Z,101949.16
2018-02-27T02:38:34.188Z,101950.54
2018-02-27T02:41:00.041Z,101952.13
2018-02-27T02:43:25.838Z,101951.42
2018-02-27T02:45:51.633Z,101950.87
2018-02-27T02:48:17.434Z,101952.31
2018-02-27T02:50:43.240Z,101945.44
2018-02-27T02:53:09.032Z,101947.28
2018-02-27T02:55:34.841Z,101945.16
2018-02-27T02:58:00.638Z,101947.97
2018-02-27T03:00:26.430Z,101952.09
2018-02-27T03:02:52.237Z,101951.79
2018-02-27T03:05:18.074Z,101948.45
2018-02-27T03:07:43.869Z,101947.55
2018-02-27T03:10:09.669Z,101949.88
2018-02-27T03:12:35.468Z,101949.68
2018-02-27T03:15:01.273Z,101944.30
2018-02-27T03:17:27.104Z,101945.33
2018-02-27T03:19:52.907Z,101945.94
2018-02-27T03:22:18.692Z,101938.38
2018-02-27T03:24:44.483Z,101943.78
2018-02-27T03:27:11.265Z,101940.97
2018-02-27T03:29:37.051Z,101937.96
2018-02-27T03:32:02.852Z,101930.51
2018-02-27T03:34:28.655Z,101924.15
2018-02-27T03:36:55.414Z,101925.80
2018-02-27T03:39:22.135Z,101921.48
2018-02-27T03:41:47.939Z,101917.08
2018-02-27T03:44:13.773Z,101916.47
2018-02-27T03:46:40.413Z,101913.53
2018-02-27T03:49:06.289Z,101909.95
2018-02-27T03:51:33.082Z,101911.03
2018-02-27T03:53:58.925Z,101909.36
2018-02-27T03:56:25.659Z,101906.55
2018-02-27T03:58:52.426Z,101900.19
2018-02-27T04:01:19.237Z,101904.70
2018-02-27T04:03:45.042Z,101904.54
2018-02-27T04:06:11.857Z,101908.20
2018-02-27T04:08:38.665Z,101900.03
2018-02-27T04:11:04.504Z,101890.47
2018-02-27T04:13:30.329Z,101894.05
2018-02-27T04:15:56.962Z,101891.31
2018-02-27T04:18:23.594Z,101896.12
2018-02-27T04:20:49.393Z,101893.31
2018-02-27T04:23:17.074Z,101900.42
2018-02-27T04:25:42.867Z,101893.94
2018-02-27T04:28:09.674Z,101895.52
2018-02-27T04:30:35.476Z,101890.61
2018-02-27T04:33:01.431Z,101890.11
2018-02-27T04:35:27.227Z,101889.69
2018-02-27T04:37:54.086Z,101889.34
2018-02-27T04:40:19.890Z,101889.69
2018-02-27T04:42:45.703Z,101889.73
2018-02-27T04:45:12.451Z,101888.64
2018-02-27T04:47:38.246Z,101893.23
2018-02-27T04:50:04.040Z,101890.84
2018-02-27T04:52:29.844Z,101884.32
2018-02-27T04:54:56.547Z,101884.95
2018-02-27T04:57:22.378Z,101888.42
2018-02-27T04:59:48.222Z,101886.38
2018-02-27T05:02:14.018Z,101889.98
2018-02-27T05:04:39.875Z,101884.02
2018-02-27T05:07:05.670Z,101891.12
2018-02-27T05:09:31.471Z,101890.87
2018-02-27T05:11:58.139Z,101891.92
2018-02-27T05:14:23.946Z,101890.09
2018-02-27T05:16:49.751Z,101892.66
2018-02-27T05:19:15.559Z,101887.34
2018-02-27T05:21:41.357Z,101887.15
2018-02-27T05:24:07.145Z,101878.28
2018-02-27T05:26:32.946Z,101875.26
2018-02-27T05:28:58.934Z,101873.59
2018-02-27T05:31:25.727Z,101866.70
2018-02-27T05:33:51.528Z,101871.30
2018-02-27T05:36:17.353Z,101869.33
2018-02-27T05:38:43.671Z,101863.12
2018-02-27T05:41:10.430Z,101867.36
2018-02-27T05:43:37.194Z,101866.81
2018-02-27T05:46:03.779Z,101868.97
2018-02-27T05:48:29.562Z,101867.26
2018-02-27T05:50:55.363Z,101870.36
2018-02-27T05:53:22.156Z,101867.70
2018-02-27T05:55:48.932Z,101864.58
2018-02-27T05:58:14.732Z,101867.03
2018-02-27T06:00:40.529Z,101868.34
2018-02-27T06:03:06.331Z,101862.89
2018-02-27T06:05:32.122Z,101859.68
2018-02-27T06:07:59.014Z,101860.77
2018-02-27T06:10:24.808Z,101860.37
2018-02-27T06:12:50.645Z,101866.66
2018-02-27T06:15:16.432Z,101864.91
2018-02-27T06:17:43.070Z,101863.34
2018-02-27T06:20:08.871Z,101867.81
2018-02-27T06:22:34.719Z,101869.64
2018-02-27T06:25:00.547Z,101864.61
2018-02-27T06:27:26.333Z,101866.61
2018-02-27T06:29:53.010Z,101864.23
2018-02-27T06:32:18.804Z,101866.44
2018-02-27T06:34:44.662Z,101866.75
2018-02-27T06:37:10.456Z,101858.17
2018-02-27T06:39:36.315Z,101864.20
2018-02-27T06:44:45.854Z,101859.95
2018-02-27T06:47:11.684Z,101863.34
2018-02-27T06:49:37.516Z,101855.27
2018-02-27T06:52:04.235Z,101862.47
2018-02-27T06:54:30.059Z,101861.06
2018-02-27T06:56:56.735Z,101865.52
2018-02-27T06:59:22.559Z,101863.41
2018-02-27T07:01:49.377Z,101868.59
2018-02-27T07:04:15.213Z,101862.59
2018-02-27T07:06:41.031Z,101863.16
2018-02-27T07:09:06.842Z,101862.82
2018-02-27T07:11:32.679Z,101860.78
2018-02-27T07:13:58.515Z,101860.87
2018-02-27T07:16:24.402Z,101853.09
2018-02-27T07:18:50.246Z,101850.89
2018-02-27T07:21:16.086Z,101856.13
2018-02-27T07:23:41.897Z,101852.89
2018-02-27T07:26:07.713Z,101854.90
2018-02-27T07:28:34.390Z,101859.17
2018-02-27T07:31:00.191Z,101858.76
2018-02-27T07:33:26.004Z,101857.98
2018-02-27T07:35:52.646Z,101857.85
2018-02-27T07:38:19.315Z,101858.36
2018-02-27T07:40:45.119Z,101857.94
2018-02-27T07:43:11.810Z,101865.55
2018-02-27T07:45:37.617Z,101860.34
2018-02-27T07:48:03.425Z,101851.39
2018-02-27T07:50:29.237Z,101853.53
2018-02-27T07:52:55.048Z,101850.45
2018-02-27T07:55:20.858Z,101849.62
2018-02-27T07:57:46.662Z,101843.75
2018-02-27T08:00:12.466Z,101839.25
2018-02-27T08:02:39.329Z,101838.98
2018-02-27T08:05:05.133Z,101848.56
2018-02-27T08:07:31.334Z,101851.08
2018-02-27T08:09:57.139Z,101839.92
2018-02-27T08:12:22.938Z,101848.19
2018-02-27T08:14:48.746Z,101847.21
2018-02-27T08:17:14.558Z,101842.53
2018-02-27T08:19:41.337Z,101846.42
2018-02-27T08:22:07.143Z,101847.91
2018-02-27T08:24:32.946Z,101847.05
2018-02-27T08:26:59.642Z,101844.42
2018-02-27T08:29:25.446Z,101844.28
2018-02-27T08:31:51.254Z,101850.84
2018-02-27T08:34:17.093Z,101840.17
2018-02-27T08:36:42.897Z,101840.75
2018-02-27T08:39:08.698Z,101841.30
2018-02-27T08:41:35.494Z,101840.33
2018-02-27T08:44:02.286Z,101838.94
2018-02-27T08:46:35.050Z,101841.45
2018-02-27T08:49:00.888Z,101834.77
2018-02-27T08:51:26.699Z,101826.52
2018-02-27T08:53:52.510Z,101822.47
2018-02-27T08:56:18.318Z,101822.38
2018-02-27T08:58:44.994Z,101832.12
2018-02-27T09:01:10.846Z,101820.00
2018-02-27T09:03:36.654Z,101827.48
2018-02-27T09:06:02.458Z,101832.65
2018-02-27T09:08:28.286Z,101818.46
2018-02-27T09:10:54.090Z,101826.02
2018-02-27T09:13:19.926Z,101829.76
2018-02-27T09:15:45.737Z,101828.10
2018-02-27T09:18:11.853Z,101823.79
2018-02-27T09:20:38.508Z,101819.59
2018-02-27T09:23:04.328Z,101810.36
2018-02-27T09:25:30.147Z,101808.88
2018-02-27T09:27:55.962Z,101806.86
2018-02-27T09:30:22.625Z,101810.62
2018-02-27T09:32:48.429Z,101806.13
2018-02-27T09:35:14.271Z,101803.31
2018-02-27T09:37:40.982Z,101798.02
2018-02-27T09:40:07.752Z,101790.53
2018-02-27T09:42:33.555Z,101788.78
2018-02-27T09:45:00.330Z,101790.72
2018-02-27T09:47:27.105Z,101790.09
2018-02-27T09:49:52.911Z,101790.63
2018-02-27T09:52:18.754Z,101779.92
2018-02-27T09:54:45.512Z,101775.84
2018-02-27T09:57:11.317Z,101776.20
2018-02-27T09:59:37.126Z,101775.50
2018-02-27T10:02:03.010Z,101777.48
2018-02-27T10:04:29.775Z,101777.52
2018-02-27T10:06:55.618Z,101776.30
2018-02-27T10:09:22.359Z,101779.42
2018-02-27T10:11:49.016Z,101780.29
2018-02-27T10:14:15.628Z,101777.25
2018-02-27T10:16:41.468Z,101774.58
2018-02-27T10:19:08.270Z,101779.48
2018-02-27T10:21:34.894Z,101776.09
2018-02-27T10:24:01.666Z,101782.75
2018-02-27T10:26:27.478Z,101782.80
2018-02-27T10:28:53.320Z,101771.12
2018-02-27T10:31:19.935Z,101777.28
2018-02-27T10:33:45.769Z,101772.82
2018-02-27T10:36:11.617Z,101769.20
2018-02-27T10:38:37.458Z,101768.66
2018-02-27T10:41:03.327Z,101768.39
2018-02-27T10:43:29.147Z,101764.48
2018-02-27T10:45:55.974Z,101763.69
2018-02-27T10:48:21.786Z,101760.20
2018-02-27T10:50:47.634Z,101767.80
2018-02-27T10:53:13.468Z,101756.40
2018-02-27T10:55:39.310Z,101762.05
2018-02-27T10:58:06.058Z,101758.71
2018-02-27T11:00:38.997Z,101750.66
2018-02-27T11:03:05.655Z,101745.97
2018-02-27T11:05:31.510Z,101754.36
2018-02-27T11:07:57.313Z,101748.54
2018-02-27T11:10:23.130Z,101743.78
2018-02-27T11:12:48.935Z,101744.67
2018-02-27T11:15:15.752Z,101747.11
2018-02-27T11:17:42.570Z,101754.19
2018-02-27T11:20:08.392Z,101739.95
2018-02-27T11:22:35.088Z,101737.59
2018-02-27T11:25:01.830Z,101747.59
2018-02-27T11:27:28.526Z,101737.19
2018-02-27T11:29:54.365Z,101745.87
2018-02-27T11:32:20.169Z,101739.11
2018-02-27T11:34:46.786Z,101734.87
2018-02-27T11:37:13.611Z,101734.85
2018-02-27T11:39:39.433Z,101732.96
2018-02-27T11:42:05.245Z,101731.85
2018-02-27T11:44:31.050Z,101725.86
2018-02-27T11:46:57.698Z,101731.86
2018-02-27T11:49:23.515Z,101731.59
2018-02-27T11:51:49.321Z,101718.47
2018-02-27T11:54:15.130Z,101727.69
2018-02-27T11:56:40.935Z,101724.63
2018-02-27T11:59:06.735Z,101719.12
2018-02-27T12:01:32.549Z,101713.52
2018-02-27T12:03:58.357Z,101712.66
2018-02-27T12:06:24.173Z,101709.05
2018-02-27T12:08:49.974Z,101710.64
2018-02-27T12:11:15.847Z,101711.20
2018-02-27T12:13:42.434Z,101702.88
2018-02-27T12:16:08.277Z,101700.48
2018-02-27T12:18:35.038Z,101701.13
2018-02-27T12:21:00.870Z,101704.86
2018-02-27T12:23:26.673Z,101701.80
2018-02-27T12:25:52.513Z,101701.00
2018-02-27T12:28:18.322Z,101710.95
2018-02-27T12:30:44.126Z,101702.30
2018-02-27T12:33:09.929Z,101702.41
2018-02-27T12:35:36.622Z,101700.28
2018-02-27T12:38:02.426Z,101689.50
2018-02-27T12:40:29.278Z,101692.69
2018-02-27T12:42:55.127Z,101689.91
2018-02-27T12:45:20.930Z,101694.20
2018-02-27T12:47:46.740Z,101692.61
2018-02-27T12:50:12.546Z,101692.19
2018-02-27T12:52:38.350Z,101688.95
2018-02-27T12:55:04.159Z,101689.75
2018-02-27T12:57:30.925Z,101692.16
2018-02-27T12:59:56.766Z,101692.05
2018-02-27T13:02:22.603Z,101691.07
2018-02-27T13:04:48.461Z,101691.16
2018-02-27T13:07:15.069Z,101694.47
2018-02-27T13:09:40.875Z,101695.98
2018-02-27T13:12:07.645Z,101692.54
2018-02-27T13:14:34.365Z,101688.27
2018-02-27T13:17:01.214Z,101685.86
2018-02-27T13:19:27.028Z,101685.22
2018-02-27T13:21:52.886Z,101685.30
2018-02-27T13:24:19.570Z,101690.34
2018-02-27T13:26:45.370Z,101684.13
2018-02-27T13:29:11.174Z,101685.59
2018-02-27T13:31:37.821Z,101677.05
2018-02-27T13:34:04.634Z,101686.58
2018-02-27T13:36:31.450Z,101680.52
2018-02-27T13:38:57.312Z,101682.84
2018-02-27T13:41:23.126Z,101681.25
2018-02-27T13:43:49.833Z,101684.08
2018-02-27T13:46:15.641Z,101674.80
2018-02-27T13:48:45.911Z,101679.77
2018-02-27T13:51:08.346Z,101673.33
2018-02-27T13:53:34.151Z,101677.77
2018-02-27T13:56:00.004Z,101671.39
2018-02-27T13:58:25.810Z,101672.65
2018-02-27T14:00:52.482Z,101669.91
2018-02-27T14:03:18.336Z,101670.61
2018-02-27T14:05:44.137Z,101668.14
2018-02-27T14:08:10.892Z,101667.19
2018-02-27T14:10:36.698Z,101668.11
2018-02-27T14:13:03.420Z,101672.81
2018-02-27T14:15:29.227Z,101673.57
2018-02-27T14:17:55.902Z,101674.88
2018-02-27T14:20:21.738Z,101672.02
2018-02-27T14:22:48.339Z,101677.22
2018-02-27T14:25:14.197Z,101676.64
2018-02-27T14:27:40.005Z,101679.45
2018-02-27T14:30:05.823Z,101682.57
2018-02-27T14:32:32.522Z,101677.48
2018-02-27T14:34:59.322Z,101680.30
2018-02-27T14:37:26.102Z,101677.08
2018-02-27T14:39:52.918Z,101671.13
2018-02-27T14:42:19.773Z,101674.39
2018-02-27T14:44:46.670Z,101675.98
2018-02-27T14:47:13.334Z,101679.00
2018-02-27T14:49:39.232Z,101677.80
2018-02-27T14:52:05.942Z,101685.30
2018-02-27T14:54:32.769Z,101683.48
2018-02-27T14:56:59.449Z,101687.03
2018-02-27T14:59:25.270Z,101685.72
2018-02-27T15:01:51.085Z,101682.92
2018-02-27T15:04:16.937Z,101696.13
2018-02-27T15:06:43.709Z,101696.73
2018-02-27T15:09:09.513Z,101690.17
2018-02-27T15:11:35.319Z,101701.45
2018-02-27T15:14:01.140Z,101702.80
2018-02-27T15:16:26.983Z,101696.36
2018-02-27T15:18:52.781Z,101699.98
2018-02-27T15:21:18.632Z,101702.21
2018-02-27T15:23:44.435Z,101697.78
2018-02-27T15:26:10.235Z,101700.44
2018-02-27T15:28:36.038Z,101693.77
2018-02-27T15:31:01.842Z,101702.73
2018-02-27T15:33:27.645Z,101697.62
2018-02-27T15:35:53.528Z,101702.22
2018-02-27T15:38:19.318Z,101700.45
2018-02-27T15:40:45.162Z,101706.15
2018-02-27T15:43:10.974Z,101699.31
2018-02-27T15:45:37.783Z,101701.70
2018-02-27T15:48:03.631Z,101705.35
2018-02-27T15:50:29.435Z,101706.45
2018-02-27T15:52:56.093Z,101713.77
2018-02-27T15:55:21.899Z,101711.37
2018-02-27T15:57:47.707Z,101714.56
2018-02-27T16:00:14.583Z,101719.84
2018-02-27T16:02:40.426Z,101722.53
2018-02-27T16:05:06.272Z,101732.38
2018-02-27T16:07:32.081Z,101729.91
2018-02-27T16:09:57.917Z,101731.78
2018-02-27T16:12:23.721Z,101724.65
2018-02-27T16:14:49.563Z,101735.25
2018-02-27T16:17:15.372Z,101732.28
2018-02-27T16:19:42.123Z,101740.72
2018-02-27T16:22:07.926Z,101740.14
2018-02-27T16:24:33.741Z,101746.61
2018-02-27T16:26:59.579Z,101744.53
2018-02-27T16:29:25.387Z,101746.81
2018-02-27T16:31:51.196Z,101749.78
2018-02-27T16:34:17.161Z,101743.77
2018-02-27T16:36:43.935Z,101754.25
2018-02-27T16:39:09.806Z,101748.60
2018-02-27T16:41:36.535Z,101753.31
2018-02-27T16:44:02.342Z,101756.86
2018-02-27T16:46:28.142Z,101763.77
2018-02-27T16:48:53.945Z,101770.70
2018-02-27T16:51:19.752Z,101771.75
2018-02-27T16:53:45.599Z,101774.48
2018-02-27T16:56:11.411Z,101773.31
2018-02-27T16:58:37.249Z,101771.53
2018-02-27T17:01:03.055Z,101780.03
2018-02-27T17:03:28.964Z,101785.34
2018-02-27T17:05:54.801Z,101773.83
2018-02-27T17:08:20.687Z,101779.50
2018-02-27T17:10:46.494Z,101790.77
2018-02-27T17:13:13.138Z,101787.30
2018-02-27T17:15:39.847Z,101795.41
2018-02-27T17:18:05.691Z,101795.63
2018-02-27T17:20:31.544Z,101798.05
2018-02-27T17:22:57.438Z,101801.91
2018-02-27T17:25:23.242Z,101804.31
2018-02-27T17:27:49.053Z,101803.75
2018-02-27T17:30:14.903Z,101808.73
2018-02-27T17:32:41.678Z,101807.97
2018-02-27T17:35:07.643Z,101805.77
2018-02-27T17:37:33.487Z,101808.39
2018-02-27T17:40:00.322Z,101811.14
2018-02-27T17:42:27.191Z,101810.43
2018-02-27T17:44:52.995Z,101809.50
2018-02-27T17:47:18.810Z,101807.69
2018-02-27T17:49:44.747Z,101808.28
2018-02-27T17:52:10.562Z,101804.69
2018-02-27T17:54:36.414Z,101803.17
2018-02-27T17:57:03.195Z,101806.22
2018-02-27T17:59:29.038Z,101809.28
2018-02-27T18:01:54.907Z,101802.20
2018-02-27T18:04:20.736Z,101811.50
2018-02-27T18:06:46.551Z,101810.94
2018-02-27T18:09:12.355Z,101809.56
2018-02-27T18:11:38.157Z,101806.73
2018-02-27T18:14:04.881Z,101806.52
2018-02-27T18:16:31.626Z,101806.42
2018-02-27T18:18:57.426Z,101813.91
2018-02-27T18:21:23.339Z,101810.63
2018-02-27T18:23:49.320Z,101818.33
2018-02-27T18:26:15.162Z,101815.70
2018-02-27T18:28:40.990Z,101812.13
2018-02-27T18:31:06.834Z,101818.36
2018-02-27T18:33:32.783Z,101821.98
2018-02-27T18:35:58.586Z,101819.11
2018-02-27T18:38:24.586Z,101822.23
2018-02-27T18:40:50.401Z,101818.75
2018-02-27T18:43:16.226Z,101820.63
2018-02-27T18:45:42.031Z,101817.77
2018-02-27T18:48:08.895Z,101819.21
2018-02-27T18:50:34.704Z,101822.47
2018-02-27T18:53:00.634Z,101828.66
2018-02-27T18:55:26.447Z,101830.44
2018-02-27T18:57:52.265Z,101830.05
2018-02-27T19:00:18.061Z,101838.28
2018-02-27T19:02:43.866Z,101839.36
2018-02-27T19:05:09.747Z,101848.04
2018-02-27T19:07:36.531Z,101848.58
2018-02-27T19:10:02.346Z,101846.11
2018-02-27T19:12:28.151Z,101850.55
2018-02-27T19:15:01.969Z,101844.95
2018-02-27T19:17:27.854Z,101847.23
2018-02-27T19:19:53.692Z,101851.86
2018-02-27T19:22:19.490Z,101858.10
2018-02-27T19:24:45.368Z,101854.23
2018-02-27T19:27:11.346Z,101853.94
2018-02-27T19:29:37.154Z,101860.57
2018-02-27T19:32:03.095Z,101857.17
2018-02-27T19:34:48.398Z,101863.77
2018-02-27T19:37:17.052Z,101858.30
2018-02-27T19:39:46.650Z,101858.88
2018-02-27T19:42:18.677Z,101853.59
2018-02-27T19:44:55.257Z,101857.29
2018-02-27T19:47:25.520Z,101863.50
2018-02-27T19:49:51.443Z,101868.75
2018-02-27T19:52:22.714Z,101866.39
2018-02-27T19:54:51.492Z,101865.62
2018-02-27T19:57:19.701Z,101864.55
2018-02-27T19:59:47.028Z,101871.26
2018-02-27T20:02:15.394Z,101873.53
2018-02-27T20:04:43.629Z,101874.07
2018-02-27T20:07:11.104Z,101882.91
2018-02-27T20:09:38.264Z,101883.28
2018-02-27T20:12:05.506Z,101881.75
2018-02-27T20:14:35.358Z,101895.00
2018-02-27T20:17:01.180Z,101890.96
2018-02-27T20:19:27.027Z,101896.72
2018-02-27T20:21:52.834Z,101896.56
2018-02-27T20:24:20.486Z,101902.39
2018-02-27T20:26:47.282Z,101904.13
2018-02-27T20:29:19.918Z,101912.57
2018-02-27T20:31:46.673Z,101918.42
2018-02-27T20:34:12.478Z,101918.62
2018-02-27T20:36:38.278Z,101919.03
2018-02-27T20:39:10.215Z,101925.91
2018-02-27T20:41:36.059Z,101928.73
2018-02-27T20:44:01.871Z,101936.78
2018-02-27T20:46:27.678Z,101937.48
2018-02-27T20:48:53.648Z,101932.64
2018-02-27T20:51:19.462Z,101939.70
2018-02-27T20:53:45.279Z,101934.87
2018-02-27T20:56:11.082Z,101947.23
2018-02-27T20:58:36.943Z,101949.13
2018-02-27T21:01:03.682Z,101950.56
2018-02-27T21:03:29.483Z,101950.42
2018-02-27T21:05:55.509Z,101957.01
2018-02-27T21:08:22.259Z,101951.70
2018-02-27T21:10:49.006Z,101956.03
2018-02-27T21:13:15.824Z,101961.19
2018-02-27T21:15:41.630Z,101966.11
2018-02-27T21:18:07.474Z,101970.02
2018-02-27T21:20:33.274Z,101967.42
2018-02-27T21:22:59.182Z,101972.63
2018-02-27T21:25:24.983Z,101967.78
2018-02-27T21:27:50.926Z,101968.63
2018-02-27T21:30:16.894Z,101973.97
2018-02-27T21:32:42.882Z,101969.12
2018-02-27T21:35:10.110Z,101972.39
2018-02-27T21:37:36.046Z,101972.13
2018-02-27T21:40:01.852Z,101976.64
2018-02-27T21:42:27.702Z,101980.32
2018-02-27T21:44:53.558Z,101976.31
2018-02-27T21:47:19.358Z,101978.13
2018-02-27T21:49:45.398Z,101977.27
2018-02-27T21:52:11.202Z,101979.61
2018-02-27T21:54:37.013Z,101986.73
2018-02-27T21:57:02.910Z,101985.78
2018-02-27T21:59:28.709Z,101985.54
2018-02-27T22:01:54.589Z,101985.31
2018-02-27T22:04:20.486Z,101992.95
2018-02-27T22:06:46.293Z,101987.93
2018-02-27T22:09:12.282Z,101992.22
2018-02-27T22:11:38.098Z,101994.11
2018-02-27T22:14:03.903Z,101998.08
2018-02-27T22:16:29.709Z,101998.84
2018-02-27T22:18:55.564Z,102000.15
2018-02-27T22:21:21.375Z,101998.27
2018-02-27T22:23:47.189Z,102002.07
2018-02-27T22:26:12.989Z,102006.28
2018-02-27T22:28:38.794Z,101997.89
2018-02-27T22:31:04.602Z,102004.66
2018-02-27T22:33:30.410Z,102002.84
2018-02-27T22:35:57.029Z,102003.13
2018-02-27T22:38:22.830Z,102002.66
2018-02-27T22:40:48.671Z,102012.38
2018-02-27T22:43:14.502Z,102012.77
2018-02-27T22:45:40.322Z,102013.09
2018-02-27T22:48:06.122Z,102012.52
2018-02-27T22:50:38.934Z,102010.22
2018-02-27T22:53:04.740Z,102013.72
2018-02-27T22:55:30.546Z,102018.08
2018-02-27T22:57:56.359Z,102014.30
2018-02-27T23:00:28.278Z,102019.80
2018-02-27T23:02:54.089Z,102018.22
2018-02-27T23:05:19.890Z,102018.47
2018-02-27T23:07:45.694Z,102021.23
2018-02-27T23:10:15.231Z,102020.66
2018-02-27T23:12:45.448Z,102020.53
2018-02-27T23:15:11.321Z,102020.45
2018-02-27T23:17:46.127Z,102024.19
2018-02-27T23:20:23.595Z,102026.61
2018-02-27T23:22:49.427Z,102014.83
2018-02-27T23:25:20.084Z,102023.43
2018-02-27T23:27:46.119Z,102019.22
2018-02-27T23:30:12.310Z,102020.81
2018-02-27T23:32:41.300Z,102020.56
2018-02-27T23:35:09.302Z,102018.12
2018-02-27T23:37:35.991Z,102021.30
2018-02-27T23:40:01.829Z,102025.17
2018-02-27T23:42:28.489Z,102022.87
2018-02-27T23:44:55.342Z,102023.08
2018-02-27T23:47:28.172Z,102020.10
2018-02-27T23:49:54.016Z,102019.39
2018-02-27T23:52:19.822Z,102020.03
2018-02-27T23:54:45.623Z,102024.45
2018-02-27T23:57:12.311Z,102026.34
2018-02-27T23:59:38.118Z,102030.70
